createdAt,value
2022-08-17T00:00:43.800Z,11.95
2022-08-17T00:03:11.286Z,12.95
2022-08-17T00:05:52.788Z,14.93
2022-08-17T00:08:26.849Z,15.48
2022-08-17T00:10:55.959Z,11.18
2022-08-17T00:13:55.936Z,14.52
2022-08-17T00:16:55.977Z,12.13
2022-08-17T00:19:23.361Z,18.23
2022-08-17T00:22:32.214Z,15.65
2022-08-17T00:24:42.747Z,17.38
2022-08-17T00:27:10.708Z,14.23
2022-08-17T00:29:38.724Z,13.45
2022-08-17T00:33:13.920Z,12.63
2022-08-17T00:35:00.887Z,14.80
2022-08-17T00:37:28.971Z,14.35
2022-08-17T00:39:56.754Z,13.73
2022-08-17T00:42:28.951Z,15.13
2022-08-17T00:44:59.497Z,17.40
2022-08-17T00:47:27.392Z,16.17
2022-08-17T00:49:55.173Z,14.07
2022-08-17T00:52:27.872Z,18.45
2022-08-17T00:54:56.208Z,13.25
2022-08-17T00:57:36.274Z,12.70
2022-08-17T01:00:15.513Z,15.63
2022-08-17T01:02:46.354Z,14.40
2022-08-17T01:05:19.033Z,14.93
2022-08-17T01:07:49.246Z,15.15
2022-08-17T01:10:59.360Z,15.93
2022-08-17T01:13:12.003Z,13.38
2022-08-17T01:15:46.398Z,14.27
2022-08-17T01:18:16.831Z,14.48
2022-08-17T01:20:49.787Z,15.20
2022-08-17T01:23:21.390Z,13.80
2022-08-17T01:25:54.421Z,17.48
2022-08-17T01:28:52.404Z,16.85
2022-08-17T01:31:13.389Z,15.75
2022-08-17T01:33:41.597Z,15.95
2022-08-17T01:36:10.219Z,17.27
2022-08-17T01:38:38.900Z,16.13
2022-08-17T01:41:15.283Z,17.80
2022-08-17T01:43:49.882Z,13.05
2022-08-17T01:46:24.205Z,15.30
2022-08-17T01:48:52.301Z,15.93
2022-08-17T01:51:21.547Z,13.38
2022-08-17T01:53:53.045Z,13.00
2022-08-17T01:56:24.701Z,14.32
2022-08-17T01:58:55.615Z,18.30
2022-08-17T02:01:27.564Z,13.27
2022-08-17T02:04:00.828Z,15.98
2022-08-17T02:06:52.643Z,16.50
2022-08-17T02:11:52.408Z,18.23
2022-08-17T02:14:23.637Z,16.27
2022-08-17T02:16:52.109Z,14.77
2022-08-17T02:19:27.941Z,16.85
2022-08-17T02:21:56.546Z,12.77
2022-08-17T02:24:58.413Z,19.75
2022-08-17T02:27:17.506Z,11.13
2022-08-17T02:29:45.642Z,13.68
2022-08-17T02:32:25.365Z,17.25
2022-08-17T02:34:58.610Z,19.20
2022-08-17T02:37:30.883Z,11.32
2022-08-17T02:39:59.873Z,14.50
2022-08-17T02:42:37.382Z,14.88
2022-08-17T02:45:11.417Z,13.20
2022-08-17T02:47:40.601Z,16.50
2022-08-17T02:50:10.644Z,16.33
2022-08-17T02:52:43.854Z,12.90
2022-08-17T02:55:14.513Z,12.65
2022-08-17T02:57:42.734Z,16.33
2022-08-17T03:00:15.498Z,16.88
2022-08-17T03:02:45.058Z,14.38
2022-08-17T03:05:16.608Z,15.27
2022-08-17T03:07:44.799Z,14.13
2022-08-17T03:10:13.182Z,16.42
2022-08-17T03:16:09.475Z,14.05
2022-08-17T03:18:37.632Z,16.08
2022-08-17T03:21:06.990Z,13.63
2022-08-17T03:23:41.207Z,13.17
2022-08-17T03:26:15.412Z,15.32
2022-08-17T03:28:44.095Z,16.75
2022-08-17T03:31:12.351Z,18.42
2022-08-17T03:33:40.142Z,16.85
2022-08-17T03:36:08.613Z,11.38
2022-08-17T03:38:39.240Z,15.80
2022-08-17T03:41:07.664Z,16.10
2022-08-17T03:43:35.658Z,15.70
2022-08-17T03:46:29.010Z,18.83
2022-08-17T03:49:28.500Z,16.50
2022-08-17T03:52:16.464Z,22.00
2022-08-17T03:55:04.416Z,21.95
2022-08-17T03:57:32.955Z,19.67
2022-08-17T04:00:00.761Z,19.05
2022-08-17T04:02:33.982Z,22.95
2022-08-17T04:05:02.654Z,18.63
2022-08-17T04:07:31.698Z,22.17
2022-08-17T04:10:00.441Z,22.05
2022-08-17T04:12:42.353Z,19.30
2022-08-17T04:15:12.831Z,18.42
2022-08-17T04:17:41.454Z,20.25
2022-08-17T04:20:09.989Z,17.25
2022-08-17T04:22:37.807Z,18.02
2022-08-17T04:25:15.981Z,20.48
2022-08-17T04:27:43.918Z,21.17
2022-08-17T04:30:13.257Z,12.50
2022-08-17T04:33:14.540Z,19.27
2022-08-17T04:35:55.503Z,16.02
2022-08-17T04:38:26.716Z,18.90
2022-08-17T04:41:15.158Z,19.85
2022-08-17T04:43:44.429Z,15.55
2022-08-17T04:46:18.402Z,14.02
2022-08-17T04:48:49.303Z,18.02
2022-08-17T04:51:47.889Z,16.98
2022-08-17T04:54:24.823Z,14.52
2022-08-17T04:56:53.283Z,16.05
2022-08-17T04:59:22.675Z,21.77
2022-08-17T05:01:52.539Z,22.70
2022-08-17T05:04:34.604Z,17.70
2022-08-17T05:07:04.790Z,18.30
2022-08-17T05:09:33.000Z,15.07
2022-08-17T05:12:02.613Z,13.73
2022-08-17T05:14:33.087Z,19.73
2022-08-17T05:17:07.214Z,17.50
2022-08-17T05:19:52.060Z,17.75
2022-08-17T05:22:20.322Z,16.37
2022-08-17T05:24:53.321Z,20.05
2022-08-17T05:27:23.428Z,21.10
2022-08-17T05:29:51.553Z,18.92
2022-08-17T05:32:37.920Z,20.73
2022-08-17T05:35:08.381Z,18.00
2022-08-17T05:37:36.207Z,23.80
2022-08-17T05:40:04.588Z,21.27
2022-08-17T05:42:32.739Z,16.25
2022-08-17T05:45:00.968Z,21.15
2022-08-17T05:47:30.600Z,17.27
2022-08-17T05:49:59.948Z,19.63
2022-08-17T05:53:00.162Z,16.25
2022-08-17T05:55:41.384Z,15.07
2022-08-17T06:01:08.050Z,21.30
2022-08-17T06:04:03.769Z,15.85
2022-08-17T06:06:48.771Z,20.35
2022-08-17T06:09:46.292Z,15.55
2022-08-17T06:12:39.096Z,15.93
2022-08-17T06:15:38.568Z,17.58
2022-08-17T06:18:09.906Z,19.33
2022-08-17T06:21:01.542Z,15.38
2022-08-17T06:23:43.775Z,18.38
2022-08-17T06:26:17.658Z,19.20
2022-08-17T06:29:00.183Z,26.23
2022-08-17T06:31:34.603Z,15.27
2022-08-17T06:34:07.051Z,16.77
2022-08-17T06:36:57.313Z,10.52
2022-08-17T06:39:39.704Z,17.38
2022-08-17T06:43:02.927Z,16.00
2022-08-17T06:46:00.326Z,13.02
2022-08-17T06:48:50.930Z,14.15
2022-08-17T06:51:48.991Z,12.02
2022-08-17T06:54:27.828Z,12.10
2022-08-17T06:57:15.137Z,15.02
2022-08-17T07:00:00.088Z,17.33
2022-08-17T07:02:52.064Z,15.98
2022-08-17T07:05:38.690Z,16.92
2022-08-17T07:08:29.967Z,12.18
2022-08-17T07:11:03.839Z,11.35
2022-08-17T07:13:42.272Z,15.52
2022-08-17T07:16:20.630Z,12.35
2022-08-17T07:18:53.335Z,15.75
2022-08-17T07:21:38.851Z,16.20
2022-08-17T07:24:29.302Z,14.40
2022-08-17T07:27:12.723Z,17.20
2022-08-17T07:29:54.117Z,14.48
2022-08-17T07:32:32.111Z,17.02
2022-08-17T07:35:15.684Z,17.55
2022-08-17T07:37:53.507Z,12.95
2022-08-17T07:40:26.965Z,16.95
2022-08-17T07:43:09.031Z,18.05
2022-08-17T07:46:18.091Z,14.70
2022-08-17T07:48:52.831Z,12.27
2022-08-17T07:51:35.766Z,15.48
2022-08-17T07:54:31.541Z,13.30
2022-08-17T07:57:27.879Z,13.38
2022-08-17T08:00:01.634Z,13.65
2022-08-17T08:02:41.680Z,15.05
2022-08-17T08:05:30.655Z,11.73
2022-08-17T08:08:42.837Z,12.98
2022-08-17T08:11:28.675Z,11.77
2022-08-17T08:14:33.924Z,17.15
2022-08-17T08:17:09.284Z,11.20
2022-08-17T08:19:38.485Z,12.18
2022-08-17T08:22:16.204Z,12.15
2022-08-17T08:25:03.144Z,15.90
2022-08-17T08:28:01.921Z,11.18
2022-08-17T08:30:34.680Z,14.93
2022-08-17T08:33:13.373Z,14.45
2022-08-17T08:36:04.383Z,15.98
2022-08-17T08:38:39.023Z,10.85
2022-08-17T08:41:16.663Z,12.10
2022-08-17T08:44:19.406Z,17.63
2022-08-17T08:47:12.594Z,11.13
2022-08-17T08:50:03.918Z,12.82
2022-08-17T08:52:48.699Z,16.13
2022-08-17T08:55:25.670Z,19.17
2022-08-17T09:01:43.520Z,15.25
2022-08-17T09:04:25.392Z,13.93
2022-08-17T09:07:17.479Z,13.02
2022-08-17T09:10:12.128Z,16.48
2022-08-17T09:12:55.183Z,10.88
2022-08-17T09:15:35.167Z,12.65
2022-08-17T09:18:59.057Z,10.17
2022-08-17T09:21:49.440Z,11.65
2022-08-17T09:24:36.024Z,12.02
2022-08-17T09:27:22.076Z,16.33
2022-08-17T09:29:54.258Z,14.13
2022-08-17T09:32:42.624Z,22.88
2022-08-17T09:35:17.200Z,13.80
2022-08-17T09:38:03.945Z,11.88
2022-08-17T09:40:38.092Z,8.73
2022-08-17T09:43:40.217Z,11.68
2022-08-17T09:46:38.764Z,9.73
2022-08-17T09:50:01.178Z,12.88
2022-08-17T09:52:30.776Z,16.67
2022-08-17T09:55:01.262Z,9.75
2022-08-17T09:58:09.584Z,22.95
2022-08-17T10:00:48.628Z,15.77
2022-08-17T10:03:16.616Z,11.45
2022-08-17T10:06:08.563Z,16.83
2022-08-17T10:09:04.732Z,12.95
2022-08-17T10:12:01.439Z,21.02
2022-08-17T10:14:38.094Z,9.95
2022-08-17T10:17:18.412Z,10.07
2022-08-17T10:20:01.531Z,14.88
2022-08-17T10:23:05.936Z,12.18
2022-08-17T10:25:57.458Z,14.77
2022-08-17T10:28:38.449Z,10.27
2022-08-17T10:34:26.179Z,12.02
2022-08-17T10:37:10.136Z,10.30
2022-08-17T10:40:11.842Z,12.52
2022-08-17T10:42:59.242Z,15.18
2022-08-17T10:46:10.510Z,16.92
2022-08-17T10:49:18.501Z,8.27
2022-08-17T10:51:49.861Z,15.48
2022-08-17T10:54:47.547Z,9.75
2022-08-17T10:57:27.768Z,10.48
2022-08-17T10:59:56.857Z,12.20
2022-08-17T11:02:41.495Z,10.40
2022-08-17T11:05:41.456Z,9.95
2022-08-17T11:08:26.748Z,12.73
2022-08-17T11:11:23.999Z,13.48
2022-08-17T11:14:18.025Z,8.90
2022-08-17T11:17:23.204Z,11.40
2022-08-17T11:19:57.220Z,12.15
2022-08-17T11:22:43.896Z,11.93
2022-08-17T11:25:32.082Z,8.18
2022-08-17T11:28:29.031Z,13.55
2022-08-17T11:31:01.054Z,11.13
2022-08-17T11:33:36.794Z,8.82
2022-08-17T11:36:12.469Z,11.70
2022-08-17T11:38:48.440Z,10.55
2022-08-17T11:41:46.374Z,14.18
2022-08-17T11:44:37.869Z,12.23
2022-08-17T11:47:39.026Z,11.98
2022-08-17T11:50:40.777Z,10.52
2022-08-17T11:53:37.855Z,8.93
2022-08-17T11:56:10.003Z,8.85
2022-08-17T11:58:43.610Z,15.23
2022-08-17T12:01:24.667Z,7.30
2022-08-17T12:04:13.753Z,13.48
2022-08-17T12:07:08.441Z,11.32
2022-08-17T12:09:42.111Z,13.02
2022-08-17T12:12:22.630Z,8.73
2022-08-17T12:15:11.812Z,18.33
2022-08-17T12:17:42.876Z,14.60
2022-08-17T12:23:18.436Z,21.70
2022-08-17T12:26:07.469Z,22.13
2022-08-17T12:28:39.391Z,20.00
2022-08-17T12:31:16.154Z,14.60
2022-08-17T12:33:46.269Z,13.73
2022-08-17T12:36:17.515Z,14.05
2022-08-17T12:38:59.676Z,9.38
2022-08-17T12:41:44.921Z,9.50
2022-08-17T12:44:25.209Z,16.83
2022-08-17T12:47:07.761Z,10.95
2022-08-17T12:49:38.547Z,9.05
2022-08-17T12:52:06.556Z,6.38
2022-08-17T12:54:57.548Z,9.60
2022-08-17T12:57:27.489Z,13.43
2022-08-17T13:00:22.052Z,12.95
2022-08-17T13:02:58.870Z,12.52
2022-08-17T13:05:31.267Z,13.75
2022-08-17T13:08:00.627Z,10.88
2022-08-17T13:10:35.091Z,28.05
2022-08-17T13:13:06.154Z,24.42
2022-08-17T13:16:06.297Z,22.75
2022-08-17T13:21:19.141Z,21.23
2022-08-17T13:24:19.622Z,10.80
2022-08-17T13:26:59.501Z,11.68
2022-08-17T13:29:45.478Z,11.75
2022-08-17T13:32:33.512Z,15.18
2022-08-17T13:35:13.797Z,9.15
2022-08-17T13:37:59.595Z,9.85
2022-08-17T13:40:42.669Z,14.27
2022-08-17T13:43:11.921Z,14.15
2022-08-17T13:45:50.810Z,11.43
2022-08-17T13:48:34.120Z,12.23
2022-08-17T13:51:11.592Z,15.65
2022-08-17T13:53:40.149Z,15.27
2022-08-17T13:56:33.303Z,12.48
2022-08-17T13:59:48.183Z,11.65
2022-08-17T14:02:20.944Z,12.55
2022-08-17T14:04:49.176Z,12.52
2022-08-17T14:07:19.494Z,9.35
2022-08-17T14:09:52.296Z,9.27
2022-08-17T14:12:27.179Z,11.82
2022-08-17T14:14:56.639Z,15.73
2022-08-17T14:17:25.416Z,10.45
2022-08-17T14:19:53.685Z,11.60
2022-08-17T14:22:31.171Z,7.50
2022-08-17T14:25:00.189Z,5.70
2022-08-17T14:27:32.044Z,9.23
2022-08-17T14:30:02.592Z,13.07
2022-08-17T14:32:35.924Z,8.13
2022-08-17T14:35:05.334Z,10.50
2022-08-17T14:37:34.661Z,11.05
2022-08-17T14:40:06.004Z,8.75
2022-08-17T14:42:35.804Z,13.80
2022-08-17T14:45:06.454Z,8.73
2022-08-17T14:47:54.356Z,10.13
2022-08-17T14:50:23.568Z,13.52
2022-08-17T14:52:51.656Z,17.95
2022-08-17T14:55:20.937Z,15.90
2022-08-17T14:57:48.751Z,12.02
2022-08-17T15:00:17.592Z,8.30
2022-08-17T15:02:53.860Z,9.48
2022-08-17T15:05:31.589Z,16.48
2022-08-17T15:08:01.574Z,19.90
2022-08-17T15:10:30.497Z,13.50
2022-08-17T15:12:58.723Z,10.25
2022-08-17T15:15:26.837Z,14.13
2022-08-17T15:17:54.532Z,11.02
2022-08-17T15:20:28.224Z,12.88
2022-08-17T15:22:57.657Z,13.40
2022-08-17T15:25:28.151Z,15.75
2022-08-17T15:27:56.838Z,13.55
2022-08-17T15:30:26.422Z,9.18
2022-08-17T15:32:56.852Z,12.90
2022-08-17T15:35:29.468Z,16.60
2022-08-17T15:38:11.075Z,10.68
2022-08-17T15:40:43.041Z,14.05
2022-08-17T15:43:26.427Z,8.98
2022-08-17T15:46:04.027Z,12.15
2022-08-17T15:48:42.963Z,11.68
2022-08-17T15:51:29.465Z,9.70
2022-08-17T15:54:17.279Z,9.68
2022-08-17T15:56:47.990Z,12.67
2022-08-17T15:59:16.570Z,12.23
2022-08-17T16:03:01.456Z,12.70
2022-08-17T16:04:33.494Z,18.38
2022-08-17T16:07:02.354Z,10.48
2022-08-17T16:09:30.371Z,11.85
2022-08-17T16:12:08.073Z,13.50
2022-08-17T16:14:36.726Z,12.18
2022-08-17T16:17:05.805Z,8.95
2022-08-17T16:19:53.813Z,11.23
2022-08-17T16:22:38.230Z,13.55
2022-08-17T16:25:14.339Z,14.43
2022-08-17T16:27:44.185Z,11.18
2022-08-17T16:30:17.108Z,12.33
2022-08-17T16:32:48.358Z,12.25
2022-08-17T16:35:17.278Z,12.18
2022-08-17T16:37:45.889Z,9.57
2022-08-17T16:40:16.122Z,10.10
2022-08-17T16:42:48.735Z,9.43
2022-08-17T16:45:22.120Z,10.32
2022-08-17T16:47:51.110Z,13.00
2022-08-17T16:50:24.318Z,9.18
2022-08-17T16:52:52.876Z,13.63
2022-08-17T16:55:23.064Z,10.88
2022-08-17T16:57:51.349Z,8.98
2022-08-17T17:00:21.298Z,9.52
2022-08-17T17:02:51.929Z,9.27
2022-08-17T17:06:06.368Z,10.75
2022-08-17T17:08:40.653Z,10.52
2022-08-17T17:11:38.457Z,9.93
2022-08-17T17:14:11.982Z,13.45
2022-08-17T17:16:59.957Z,11.30
2022-08-17T17:19:46.070Z,11.82
2022-08-17T17:22:23.729Z,10.75
2022-08-17T17:24:57.695Z,13.27
2022-08-17T17:27:40.407Z,32.10
2022-08-17T17:30:11.913Z,19.45
2022-08-17T17:32:55.033Z,13.40
2022-08-17T17:35:35.243Z,13.05
2022-08-17T17:38:15.569Z,17.48
2022-08-17T17:40:47.884Z,11.70
2022-08-17T17:43:38.464Z,10.05
2022-08-17T17:46:27.767Z,16.80
2022-08-17T17:49:00.650Z,14.57
2022-08-17T17:52:06.240Z,16.45
2022-08-17T17:54:54.513Z,14.60
2022-08-17T17:57:35.857Z,14.77
2022-08-17T18:00:14.690Z,15.85
2022-08-17T18:02:51.213Z,13.63
2022-08-17T18:05:48.258Z,11.48
2022-08-17T18:08:34.972Z,15.73
2022-08-17T18:11:24.894Z,21.23
2022-08-17T18:13:56.507Z,14.00
2022-08-17T18:16:26.695Z,13.45
2022-08-17T18:18:58.116Z,16.15
2022-08-17T18:21:37.509Z,14.55
2022-08-17T18:24:09.164Z,11.15
2022-08-17T18:26:44.721Z,15.48
2022-08-17T18:29:25.722Z,20.15
2022-08-17T18:32:22.018Z,12.77
2022-08-17T18:35:14.280Z,16.63
2022-08-17T18:37:48.534Z,18.80
2022-08-17T18:40:19.904Z,12.73
2022-08-17T18:43:05.415Z,17.25
2022-08-17T18:45:39.015Z,15.73
2022-08-17T18:48:23.318Z,19.55
2022-08-17T18:50:54.331Z,15.90
2022-08-17T18:53:36.592Z,19.98
2022-08-17T18:56:32.883Z,24.27
2022-08-17T18:59:13.026Z,17.98
2022-08-17T19:01:52.661Z,21.23
2022-08-17T19:04:36.374Z,15.88
2022-08-17T19:07:06.442Z,19.02
2022-08-17T19:09:49.402Z,20.13
2022-08-17T19:12:39.406Z,23.75
2022-08-17T19:15:11.011Z,29.23
2022-08-17T19:17:51.641Z,16.08
2022-08-17T19:20:35.860Z,24.67
2022-08-17T19:23:53.414Z,21.90
2022-08-17T19:26:53.473Z,22.83
2022-08-17T19:29:38.869Z,28.27
2022-08-17T19:32:11.441Z,31.05
2022-08-17T19:34:43.245Z,23.58
2022-08-17T19:37:44.433Z,32.63
2022-08-17T19:40:50.645Z,28.58
2022-08-17T19:43:18.161Z,23.52
2022-08-17T19:45:48.791Z,24.83
2022-08-17T19:48:41.105Z,19.05
2022-08-17T19:51:37.852Z,15.93
2022-08-17T19:54:20.687Z,26.92
2022-08-17T19:56:56.029Z,18.70
2022-08-17T19:59:26.730Z,19.17
2022-08-17T20:02:14.695Z,25.65
2022-08-17T20:04:47.152Z,23.67
2022-08-17T20:07:22.618Z,20.35
2022-08-17T20:10:05.053Z,32.65
2022-08-17T20:12:39.529Z,26.88
2022-08-17T20:15:17.411Z,18.75
2022-08-17T20:17:47.321Z,19.02
2022-08-17T20:20:21.134Z,19.92
2022-08-17T20:23:07.157Z,23.92
2022-08-17T20:25:37.991Z,20.38
2022-08-17T20:28:31.168Z,22.77
2022-08-17T20:30:59.469Z,24.38
2022-08-17T20:33:36.983Z,18.98
2022-08-17T20:36:24.260Z,22.63
2022-08-17T20:38:54.062Z,21.88
2022-08-17T20:41:27.167Z,24.60
2022-08-17T20:43:58.887Z,24.55
2022-08-17T20:46:38.667Z,21.45
2022-08-17T20:49:16.722Z,21.35
2022-08-17T20:52:16.783Z,18.60
2022-08-17T20:54:50.024Z,23.83
2022-08-17T20:57:33.165Z,24.95
2022-08-17T21:00:19.811Z,23.13
2022-08-17T21:03:11.424Z,23.25
2022-08-17T21:06:00.907Z,16.85
2022-08-17T21:08:45.820Z,19.95
2022-08-17T21:12:03.462Z,20.02
2022-08-17T21:14:54.438Z,19.10
2022-08-17T21:17:46.646Z,25.67
2022-08-17T21:20:32.771Z,20.95
2022-08-17T21:23:17.386Z,21.67
2022-08-17T21:25:57.280Z,20.85
2022-08-17T21:29:00.782Z,23.25
2022-08-17T21:31:34.385Z,24.92
2022-08-17T21:34:28.466Z,26.45
2022-08-17T21:37:16.953Z,21.85
2022-08-17T21:39:50.787Z,20.92
2022-08-17T21:42:24.697Z,26.17
2022-08-17T21:44:58.276Z,25.25
2022-08-17T21:47:28.851Z,24.92
2022-08-17T21:52:41.103Z,23.48
2022-08-17T21:55:21.663Z,24.05
2022-08-17T21:57:53.237Z,25.50
2022-08-17T22:00:38.250Z,17.95
2022-08-17T22:03:21.550Z,24.42
2022-08-17T22:05:51.681Z,18.92
2022-08-17T22:08:23.858Z,19.67
2022-08-17T22:11:01.111Z,24.42
2022-08-17T22:13:29.757Z,18.17
2022-08-17T22:16:29.232Z,19.25
2022-08-17T22:18:59.451Z,25.90
2022-08-17T22:21:27.707Z,31.63
2022-08-17T22:24:18.202Z,28.13
2022-08-17T22:27:13.161Z,25.13
2022-08-17T22:29:45.410Z,31.15
2022-08-17T22:32:37.654Z,22.33
2022-08-17T22:35:34.895Z,21.48
2022-08-17T22:38:23.183Z,22.35
2022-08-17T22:40:57.658Z,27.48
2022-08-17T22:43:28.854Z,20.70
2022-08-17T22:46:00.168Z,19.90
2022-08-17T22:48:31.402Z,18.52
2022-08-17T22:51:13.712Z,22.02
2022-08-17T22:54:20.614Z,22.27
2022-08-17T22:57:31.267Z,18.50
2022-08-17T23:00:01.440Z,22.55
2022-08-17T23:02:32.341Z,25.20
2022-08-17T23:05:16.927Z,21.60
2022-08-17T23:07:46.848Z,18.58
2022-08-17T23:10:14.967Z,20.65
2022-08-17T23:12:42.963Z,23.95
2022-08-17T23:15:15.820Z,18.15
2022-08-17T23:17:45.042Z,18.80
2022-08-17T23:20:15.686Z,20.60
2022-08-17T23:22:51.760Z,17.00
2022-08-17T23:25:28.257Z,22.77
2022-08-17T23:27:58.669Z,20.58
2022-08-17T23:33:00.315Z,22.02
2022-08-17T23:35:39.930Z,20.40
2022-08-17T23:38:10.668Z,25.65
2022-08-17T23:40:39.375Z,24.65
2022-08-17T23:43:17.580Z,24.25
2022-08-17T23:46:00.379Z,24.73
2022-08-17T23:48:36.521Z,18.50
2022-08-17T23:51:14.574Z,23.42
2022-08-17T23:53:47.918Z,23.73
2022-08-17T23:56:17.359Z,24.25
2022-08-17T23:58:45.174Z,22.73
